createdAt,value
2018-10-17T00:00:56.933Z,83.10
2018-10-17T00:03:25.715Z,84.20
2018-10-17T00:05:53.248Z,85.60
2018-10-17T00:08:20.792Z,84.30
2018-10-17T00:10:48.592Z,84.00
2018-10-17T00:13:16.571Z,84.00
2018-10-17T00:15:45.155Z,84.00
2018-10-17T00:18:13.096Z,84.40
2018-10-17T00:20:40.592Z,84.30
2018-10-17T00:23:08.766Z,84.20
2018-10-17T00:25:36.744Z,86.50
2018-10-17T00:28:05.437Z,87.10
2018-10-17T00:30:32.982Z,86.00
2018-10-17T00:33:01.179Z,85.30
2018-10-17T00:35:28.695Z,84.00
2018-10-17T00:37:57.122Z,85.30
2018-10-17T00:40:25.338Z,84.10
2018-10-17T00:42:54.181Z,85.80
2018-10-17T00:45:22.308Z,83.80
2018-10-17T00:47:50.267Z,84.50
2018-10-17T00:50:17.789Z,83.80
2018-10-17T00:52:45.325Z,84.20
2018-10-17T00:55:14.248Z,84.30
2018-10-17T00:57:41.705Z,83.90
2018-10-17T01:00:10.531Z,83.20
2018-10-17T01:02:38.056Z,83.10
2018-10-17T01:05:05.703Z,83.00
2018-10-17T01:07:33.532Z,82.80
2018-10-17T01:10:01.075Z,82.50
2018-10-17T01:12:29.064Z,82.60
2018-10-17T01:14:56.576Z,82.30
2018-10-17T01:17:24.824Z,82.50
2018-10-17T01:19:52.835Z,82.30
2018-10-17T01:22:20.348Z,82.20
2018-10-17T01:24:48.520Z,81.90
2018-10-17T01:27:16.600Z,82.00
2018-10-17T01:29:45.000Z,82.30
2018-10-17T01:32:12.519Z,81.60
2018-10-17T01:34:40.044Z,81.20
2018-10-17T01:37:08.898Z,81.30
2018-10-17T01:39:37.196Z,81.00
2018-10-17T01:42:05.524Z,81.10
2018-10-17T01:44:33.023Z,81.20
2018-10-17T01:47:00.554Z,81.00
2018-10-17T01:49:28.692Z,81.80
2018-10-17T01:51:56.203Z,81.00
2018-10-17T01:54:23.748Z,81.20
2018-10-17T01:56:53.415Z,81.10
2018-10-17T01:59:20.932Z,81.10
2018-10-17T02:01:48.441Z,81.00
2018-10-17T02:04:16.418Z,81.00
2018-10-17T02:06:43.931Z,80.90
2018-10-17T02:09:12.157Z,80.80
2018-10-17T02:11:39.642Z,81.00
2018-10-17T02:14:07.342Z,80.40
2018-10-17T02:16:35.779Z,81.00
2018-10-17T02:19:04.098Z,81.10
2018-10-17T02:21:31.608Z,81.10
2018-10-17T02:24:00.815Z,80.80
2018-10-17T02:26:28.899Z,81.00
2018-10-17T02:28:56.478Z,80.60
2018-10-17T02:31:23.928Z,80.30
2018-10-17T02:33:52.575Z,80.10
2018-10-17T02:36:20.072Z,80.10
2018-10-17T02:38:48.160Z,80.10
2018-10-17T02:41:16.183Z,80.10
2018-10-17T02:43:44.720Z,80.00
2018-10-17T02:46:12.746Z,80.10
2018-10-17T02:48:40.588Z,80.20
2018-10-17T02:51:08.150Z,80.10
2018-10-17T02:53:36.613Z,80.00
2018-10-17T02:56:04.282Z,80.00
2018-10-17T02:58:31.968Z,80.10
2018-10-17T03:00:59.630Z,80.40
2018-10-17T03:03:27.120Z,80.20
2018-10-17T03:05:56.596Z,80.10
2018-10-17T03:08:24.139Z,80.00
2018-10-17T03:10:51.708Z,79.90
2018-10-17T03:13:19.581Z,80.00
2018-10-17T03:15:47.761Z,79.90
2018-10-17T03:18:16.763Z,80.00
2018-10-17T03:20:44.268Z,80.00
2018-10-17T03:23:11.855Z,80.10
2018-10-17T03:25:40.017Z,80.00
2018-10-17T03:28:08.394Z,80.00
2018-10-17T03:30:35.748Z,79.70
2018-10-17T03:33:04.252Z,79.70
2018-10-17T03:35:32.867Z,79.60
2018-10-17T03:38:01.081Z,79.50
2018-10-17T03:40:28.600Z,80.00
2018-10-17T03:42:56.852Z,79.40
2018-10-17T03:45:24.345Z,79.50
2018-10-17T03:47:53.476Z,79.60
2018-10-17T03:50:20.980Z,79.80
2018-10-17T03:52:49.212Z,79.70
2018-10-17T03:55:16.730Z,79.60
2018-10-17T03:57:44.232Z,80.00
2018-10-17T04:00:12.005Z,79.70
2018-10-17T04:02:39.668Z,79.50
2018-10-17T04:05:08.651Z,79.70
2018-10-17T04:07:36.162Z,79.70
2018-10-17T04:10:04.037Z,79.50
2018-10-17T04:12:32.008Z,79.60
2018-10-17T04:14:59.683Z,79.60
2018-10-17T04:17:28.204Z,79.90
2018-10-17T04:19:56.837Z,79.60
2018-10-17T04:22:25.111Z,80.70
2018-10-17T04:24:54.298Z,81.00
2018-10-17T04:27:22.848Z,80.60
2018-10-17T04:29:50.924Z,80.50
2018-10-17T04:32:18.460Z,81.20
2018-10-17T04:34:46.016Z,80.30
2018-10-17T04:37:14.759Z,80.80
2018-10-17T04:39:42.240Z,80.00
2018-10-17T04:42:10.173Z,80.40
2018-10-17T04:44:37.770Z,80.00
2018-10-17T04:47:05.312Z,79.90
2018-10-17T04:49:33.323Z,79.50
2018-10-17T04:52:00.831Z,80.00
2018-10-17T04:54:28.408Z,80.20
2018-10-17T04:56:55.952Z,80.60
2018-10-17T04:59:23.448Z,80.80
2018-10-17T05:01:51.562Z,80.10
2018-10-17T05:04:19.077Z,79.70
2018-10-17T05:06:46.658Z,79.90
2018-10-17T05:09:14.570Z,79.80
2018-10-17T05:11:42.847Z,80.00
2018-10-17T05:14:10.871Z,80.70
2018-10-17T05:16:38.875Z,81.10
2018-10-17T05:19:07.048Z,79.90
2018-10-17T05:21:34.815Z,80.60
2018-10-17T05:24:03.219Z,79.80
2018-10-17T05:26:31.215Z,79.90
2018-10-17T05:28:58.756Z,79.50
2018-10-17T05:31:26.371Z,79.60
2018-10-17T05:33:54.087Z,79.90
2018-10-17T05:36:21.612Z,81.30
2018-10-17T05:38:49.591Z,80.20
2018-10-17T05:41:17.856Z,81.10
2018-10-17T05:43:45.995Z,80.50
2018-10-17T05:46:14.272Z,80.40
2018-10-17T05:48:42.433Z,79.90
2018-10-17T05:51:09.968Z,80.00
2018-10-17T05:53:37.461Z,79.90
2018-10-17T05:56:05.140Z,79.90
2018-10-17T05:58:32.651Z,80.20
2018-10-17T06:01:01.932Z,79.60
2018-10-17T06:03:29.824Z,79.40
2018-10-17T06:05:57.315Z,79.40
2018-10-17T06:08:25.615Z,79.50
2018-10-17T06:10:53.153Z,80.30
2018-10-17T06:13:21.572Z,80.20
2018-10-17T06:15:50.624Z,79.80
2018-10-17T06:18:19.261Z,79.60
2018-10-17T06:20:46.771Z,79.80
2018-10-17T06:23:15.108Z,78.70
2018-10-17T06:25:43.384Z,79.20
2018-10-17T06:28:11.627Z,79.00
2018-10-17T06:30:39.684Z,79.10
2018-10-17T06:33:07.963Z,78.40
2018-10-17T06:35:35.794Z,78.30
2018-10-17T06:38:04.177Z,78.00
2018-10-17T06:40:32.418Z,78.10
2018-10-17T06:43:00.186Z,77.70
2018-10-17T06:45:28.205Z,78.00
2018-10-17T06:47:56.149Z,78.00
2018-10-17T06:50:23.692Z,78.00
2018-10-17T06:52:51.282Z,77.40
2018-10-17T06:55:18.881Z,77.10
2018-10-17T06:57:47.203Z,77.20
2018-10-17T07:00:14.774Z,76.70
2018-10-17T07:02:42.280Z,76.60
2018-10-17T07:05:10.742Z,76.30
2018-10-17T07:07:38.475Z,76.40
2018-10-17T07:10:06.698Z,76.30
2018-10-17T07:12:34.491Z,75.90
2018-10-17T07:15:02.825Z,76.30
2018-10-17T07:17:31.046Z,75.90
2018-10-17T07:19:58.553Z,75.80
2018-10-17T07:22:26.898Z,75.40
2018-10-17T07:24:55.007Z,75.70
2018-10-17T07:27:23.041Z,74.60
2018-10-17T07:29:50.709Z,74.70
2018-10-17T07:32:18.108Z,74.20
2018-10-17T07:34:45.768Z,73.70
2018-10-17T07:37:13.740Z,74.30
2018-10-17T07:39:41.242Z,73.40
2018-10-17T07:42:09.324Z,73.70
2018-10-17T07:44:37.073Z,73.50
2018-10-17T07:47:05.204Z,73.00
2018-10-17T07:49:33.081Z,73.00
2018-10-17T07:52:00.595Z,73.40
2018-10-17T07:54:28.714Z,72.00
2018-10-17T07:56:56.228Z,72.50
2018-10-17T07:59:23.724Z,72.20
2018-10-17T08:01:51.980Z,71.60
2018-10-17T08:04:20.188Z,71.30
2018-10-17T08:06:47.855Z,71.00
2018-10-17T08:09:15.292Z,71.10
2018-10-17T08:11:43.605Z,70.30
2018-10-17T08:14:11.152Z,70.60
2018-10-17T08:16:39.549Z,70.70
2018-10-17T08:19:07.060Z,70.00
2018-10-17T08:21:34.722Z,70.20
2018-10-17T08:24:03.283Z,70.10
2018-10-17T08:26:31.436Z,69.80
2018-10-17T08:28:58.956Z,69.20
2018-10-17T08:31:26.488Z,69.70
2018-10-17T08:33:54.044Z,69.10
2018-10-17T08:36:21.746Z,69.20
2018-10-17T08:38:49.599Z,69.30
2018-10-17T08:41:18.283Z,67.30
2018-10-17T08:43:45.850Z,67.00
2018-10-17T08:46:14.069Z,68.00
2018-10-17T08:48:43.017Z,67.20
2018-10-17T08:51:10.584Z,67.10
2018-10-17T08:53:38.542Z,66.90
2018-10-17T08:56:06.127Z,66.40
2018-10-17T08:58:33.604Z,66.40
2018-10-17T09:01:02.206Z,66.60
2018-10-17T09:03:29.709Z,66.20
2018-10-17T09:05:57.620Z,66.20
2018-10-17T09:08:25.236Z,66.00
2018-10-17T09:10:53.151Z,66.40
2018-10-17T09:13:20.705Z,66.30
2018-10-17T09:15:48.672Z,65.70
2018-10-17T09:18:17.878Z,62.90
2018-10-17T09:20:46.450Z,64.50
2018-10-17T09:23:13.668Z,63.30
2018-10-17T09:25:42.207Z,64.60
2018-10-17T09:28:10.211Z,61.70
2018-10-17T09:30:37.778Z,63.80
2018-10-17T09:33:05.556Z,64.40
2018-10-17T09:35:33.341Z,62.90
2018-10-17T09:38:01.564Z,63.80
2018-10-17T09:40:29.064Z,63.60
2018-10-17T09:42:56.573Z,63.20
2018-10-17T09:45:24.260Z,62.70
2018-10-17T09:47:52.308Z,63.80
2018-10-17T09:50:20.332Z,62.50
2018-10-17T09:52:47.876Z,62.90
2018-10-17T09:55:16.555Z,61.20
2018-10-17T10:03:30.440Z,60.10
2018-10-17T10:05:57.959Z,59.50
2018-10-17T10:08:26.080Z,59.90
2018-10-17T10:10:53.621Z,60.00
2018-10-17T10:13:21.123Z,59.90
2018-10-17T10:24:28.144Z,58.40
2018-10-17T10:26:55.649Z,59.30
2018-10-17T10:29:23.147Z,59.40
2018-10-17T10:31:50.826Z,57.10
2018-10-17T10:34:19.294Z,58.70
2018-10-17T10:36:47.268Z,58.30
2018-10-17T10:39:14.779Z,55.30
2018-10-17T10:41:42.273Z,54.00
2018-10-17T10:44:11.121Z,56.00
2018-10-17T10:46:39.563Z,56.60
2018-10-17T10:49:07.578Z,53.50
2018-10-17T10:51:35.109Z,56.50
2018-10-17T10:54:02.754Z,55.90
2018-10-17T10:56:31.025Z,55.10
2018-10-17T10:58:58.658Z,55.80
2018-10-17T11:01:26.162Z,55.30
2018-10-17T11:03:53.933Z,54.70
2018-10-17T11:06:21.852Z,54.70
2018-10-17T11:08:49.384Z,54.30
2018-10-17T11:11:16.962Z,54.30
2018-10-17T11:13:44.634Z,53.80
2018-10-17T11:16:12.877Z,54.00
2018-10-17T11:18:40.884Z,49.00
2018-10-17T11:21:08.567Z,52.80
2018-10-17T11:23:36.037Z,51.80
2018-10-17T11:26:05.117Z,54.40
2018-10-17T11:28:32.650Z,52.00
2018-10-17T11:31:01.432Z,50.30
2018-10-17T11:33:29.621Z,52.20
2018-10-17T11:35:57.301Z,52.20
2018-10-17T11:38:25.400Z,51.40
2018-10-17T11:40:52.908Z,51.40
2018-10-17T11:43:20.443Z,52.00
2018-10-17T11:45:50.013Z,52.30
2018-10-17T11:48:18.192Z,51.80
2018-10-17T11:50:45.745Z,51.90
2018-10-17T11:53:14.345Z,52.30
2018-10-17T11:55:41.852Z,52.30
2018-10-17T11:58:09.461Z,52.30
2018-10-17T12:00:37.822Z,52.10
2018-10-17T12:03:06.581Z,52.00
2018-10-17T12:05:34.807Z,51.40
2018-10-17T12:08:02.050Z,51.20
2018-10-17T12:10:29.632Z,51.50
2018-10-17T12:12:58.540Z,51.60
2018-10-17T12:15:26.808Z,51.50
2018-10-17T12:17:55.155Z,51.80
2018-10-17T12:20:22.624Z,52.60
2018-10-17T12:22:50.255Z,52.40
2018-10-17T12:25:18.356Z,52.00
2018-10-17T12:27:45.984Z,52.30
2018-10-17T12:30:14.881Z,51.80
2018-10-17T12:32:42.469Z,52.10
2018-10-17T12:35:10.293Z,52.00
2018-10-17T12:37:38.184Z,52.50
2018-10-17T12:40:07.599Z,52.90
2018-10-17T12:42:35.657Z,53.10
2018-10-17T12:45:03.352Z,52.90
2018-10-17T12:47:30.859Z,53.20
2018-10-17T12:49:59.351Z,53.30
2018-10-17T12:52:28.108Z,53.60
2018-10-17T12:54:55.732Z,54.10
2018-10-17T12:57:23.236Z,53.50
2018-10-17T12:59:51.383Z,53.70
2018-10-17T13:02:19.543Z,54.00
2018-10-17T13:04:47.072Z,53.20
2018-10-17T13:07:15.267Z,53.40
2018-10-17T13:09:43.699Z,53.60
2018-10-17T13:12:11.244Z,53.60
2018-10-17T13:14:39.742Z,53.50
2018-10-17T13:17:08.252Z,53.70
2018-10-17T13:19:36.245Z,53.40
2018-10-17T13:22:03.981Z,53.90
2018-10-17T13:24:32.177Z,54.00
2018-10-17T13:27:00.629Z,53.80
2018-10-17T13:29:28.641Z,54.20
2018-10-17T13:31:56.634Z,54.50
2018-10-17T13:34:25.025Z,54.70
2018-10-17T13:36:53.183Z,54.60
2018-10-17T13:39:21.121Z,54.80
2018-10-17T13:41:50.151Z,55.10
2018-10-17T13:44:18.104Z,55.20
2018-10-17T13:46:46.059Z,55.30
2018-10-17T13:49:14.165Z,55.50
2018-10-17T13:51:42.413Z,55.40
2018-10-17T13:54:10.140Z,55.70
2018-10-17T13:56:38.323Z,56.30
2018-10-17T13:59:06.412Z,56.30
2018-10-17T14:01:33.941Z,56.60
2018-10-17T14:04:03.004Z,56.60
2018-10-17T14:06:30.526Z,56.20
2018-10-17T14:08:59.088Z,56.70
2018-10-17T14:11:26.778Z,56.80
2018-10-17T14:13:54.348Z,57.40
2018-10-17T14:16:22.509Z,57.60
2018-10-17T14:18:50.531Z,57.30
2018-10-17T14:21:18.787Z,57.90
2018-10-17T14:23:47.608Z,59.30
2018-10-17T14:26:15.776Z,60.20
2018-10-17T14:28:44.163Z,61.00
2018-10-17T14:31:11.704Z,62.70
2018-10-17T14:33:39.373Z,62.10
2018-10-17T14:36:07.235Z,63.60
2018-10-17T14:38:35.816Z,63.80
2018-10-17T14:41:03.573Z,62.50
2018-10-17T14:43:31.096Z,65.20
2018-10-17T14:45:59.335Z,63.90
2018-10-17T14:48:27.657Z,63.90
2018-10-17T14:50:55.249Z,63.40
2018-10-17T14:53:22.757Z,63.60
2018-10-17T14:55:51.215Z,64.30
2018-10-17T14:58:18.731Z,65.80
2018-10-17T15:00:46.641Z,65.40
2018-10-17T15:03:14.402Z,65.60
2018-10-17T15:05:42.549Z,65.70
2018-10-17T15:08:10.410Z,68.40
2018-10-17T15:10:38.532Z,69.10
2018-10-17T15:13:06.528Z,67.50
2018-10-17T15:15:39.032Z,67.40
2018-10-17T15:18:07.424Z,66.60
2018-10-17T15:20:36.320Z,66.80
2018-10-17T15:23:04.694Z,70.20
2018-10-17T15:25:32.831Z,68.30
2018-10-17T15:28:00.388Z,68.30
2018-10-17T15:30:27.899Z,68.70
2018-10-17T15:32:56.306Z,68.10
2018-10-17T15:35:24.416Z,69.00
2018-10-17T15:37:52.744Z,69.70
2018-10-17T15:40:20.252Z,70.50
2018-10-17T15:42:47.763Z,70.00
2018-10-17T15:45:15.957Z,70.50
2018-10-17T15:47:44.008Z,70.20
2018-10-17T15:50:11.521Z,70.50
2018-10-17T15:52:39.886Z,71.40
2018-10-17T15:55:07.427Z,70.90
2018-10-17T15:57:35.616Z,71.20
2018-10-17T16:00:03.773Z,70.50
2018-10-17T16:02:31.794Z,71.60
2018-10-17T16:04:59.848Z,72.50
2018-10-17T16:07:27.969Z,72.20
2018-10-17T16:09:56.000Z,73.70
2018-10-17T16:12:24.125Z,74.50
2018-10-17T16:14:52.669Z,79.20
2018-10-17T16:17:20.836Z,75.10
2018-10-17T16:19:49.376Z,74.80
2018-10-17T16:22:16.993Z,74.50
2018-10-17T16:24:45.072Z,74.90
2018-10-17T16:27:12.582Z,75.20
2018-10-17T16:29:40.145Z,75.20
2018-10-17T16:32:07.972Z,76.00
2018-10-17T16:34:36.372Z,76.60
2018-10-17T16:37:05.433Z,75.80
2018-10-17T16:39:32.940Z,76.10
2018-10-17T16:42:01.823Z,75.50
2018-10-17T16:44:30.019Z,76.20
2018-10-17T16:46:57.540Z,75.90
2018-10-17T16:49:28.796Z,75.30
2018-10-17T16:51:57.280Z,75.80
2018-10-17T16:54:24.862Z,78.70
2018-10-17T16:56:53.707Z,79.50
2018-10-17T16:59:21.256Z,77.90
2018-10-17T17:01:49.420Z,78.20
2018-10-17T17:04:17.434Z,78.70
2018-10-17T17:06:46.134Z,78.80
2018-10-17T17:09:13.723Z,78.20
2018-10-17T17:11:41.899Z,78.60
2018-10-17T17:14:11.326Z,79.10
2018-10-17T17:16:39.386Z,79.50
2018-10-17T17:19:07.492Z,79.40
2018-10-17T17:21:38.456Z,79.80
2018-10-17T17:24:06.428Z,80.00
2018-10-17T17:26:35.161Z,80.60
2018-10-17T17:29:03.116Z,80.00
2018-10-17T17:31:31.947Z,80.00
2018-10-17T17:34:00.544Z,80.70
2018-10-17T17:36:31.168Z,81.20
2018-10-17T17:38:59.493Z,80.40
2018-10-17T17:41:27.048Z,80.30
2018-10-17T17:43:56.904Z,79.30
2018-10-17T17:46:24.423Z,80.00
2018-10-17T17:48:53.281Z,79.90
2018-10-17T17:51:20.801Z,80.40
2018-10-17T17:53:48.440Z,86.80
2018-10-17T17:56:15.977Z,83.30
2018-10-17T17:58:45.829Z,85.80
2018-10-17T18:01:13.312Z,83.40
2018-10-17T18:03:41.240Z,82.50
2018-10-17T18:06:09.392Z,82.40
2018-10-17T18:08:36.923Z,82.60
2018-10-17T18:11:19.113Z,83.50
2018-10-17T18:13:47.132Z,83.60
2018-10-17T18:16:15.610Z,84.90
2018-10-17T18:18:44.196Z,85.20
2018-10-17T18:21:12.433Z,84.70
2018-10-17T18:23:40.551Z,85.40
2018-10-17T18:26:09.209Z,85.80
2018-10-17T18:28:37.408Z,84.50
2018-10-17T18:31:05.032Z,84.20
2018-10-17T18:33:32.954Z,84.40
2018-10-17T18:36:01.161Z,84.20
2018-10-17T18:38:30.132Z,84.20
2018-10-17T18:40:58.518Z,84.20
2018-10-17T18:43:28.248Z,84.30
2018-10-17T18:45:57.650Z,84.30
2018-10-17T18:48:26.181Z,86.90
2018-10-17T18:50:53.817Z,90.40
2018-10-17T18:53:21.501Z,87.90
2018-10-17T18:55:49.850Z,87.50
2018-10-17T18:58:17.409Z,88.40
2018-10-17T19:00:45.587Z,88.60
2018-10-17T19:03:13.976Z,92.50
2018-10-17T19:05:41.953Z,87.60
2018-10-17T19:08:09.659Z,87.00
2018-10-17T19:10:38.537Z,86.80
2018-10-17T19:13:06.897Z,92.70
2018-10-17T19:15:36.265Z,88.20
2018-10-17T19:18:05.093Z,88.00
2018-10-17T19:20:32.779Z,88.30
2018-10-17T19:23:00.400Z,87.40
2018-10-17T19:25:28.828Z,87.20
2018-10-17T19:27:57.091Z,87.00
2018-10-17T19:30:25.379Z,87.00
2018-10-17T19:32:53.489Z,87.10
2018-10-17T19:35:21.959Z,87.00
2018-10-17T19:37:50.844Z,87.20
2018-10-17T19:40:18.435Z,86.90
2018-10-17T19:42:46.981Z,86.70
2018-10-17T19:45:15.269Z,87.80
2018-10-17T19:47:43.251Z,88.80
2018-10-17T19:50:11.056Z,87.20
2018-10-17T19:52:38.621Z,89.50
2018-10-17T19:55:07.941Z,93.80
2018-10-17T19:57:35.451Z,93.10
2018-10-17T20:00:03.256Z,93.40
2018-10-17T20:02:31.307Z,90.70
2018-10-17T20:04:59.072Z,91.70
2018-10-17T20:07:26.776Z,89.80
2018-10-17T20:09:54.689Z,89.50
2018-10-17T20:12:22.757Z,89.40
2018-10-17T20:14:51.043Z,89.10
2018-10-17T20:17:19.408Z,89.30
2018-10-17T20:19:47.029Z,90.60
2018-10-17T20:22:15.072Z,95.10
2018-10-17T20:24:43.358Z,92.20
2018-10-17T20:27:10.991Z,90.90
2018-10-17T20:29:39.671Z,91.00
2018-10-17T20:32:08.402Z,90.90
2018-10-17T20:34:36.091Z,90.70
2018-10-17T20:37:04.762Z,91.90
2018-10-17T20:39:32.543Z,91.60
2018-10-17T20:42:01.509Z,91.20
2018-10-17T20:44:29.592Z,91.10
2018-10-17T20:46:58.060Z,92.60
2018-10-17T20:49:26.714Z,91.60
2018-10-17T20:51:54.319Z,91.20
2018-10-17T20:54:21.954Z,91.90
2018-10-17T20:56:49.872Z,91.00
2018-10-17T20:59:17.434Z,90.40
2018-10-17T21:01:46.174Z,91.00
2018-10-17T21:04:14.421Z,91.40
2018-10-17T21:06:43.199Z,91.60
2018-10-17T21:09:13.228Z,90.60
2018-10-17T21:11:41.067Z,93.10
2018-10-17T21:14:09.648Z,95.00
2018-10-17T21:16:38.001Z,95.60
2018-10-17T21:19:05.880Z,94.20
2018-10-17T21:21:34.224Z,92.60
2018-10-17T21:24:02.701Z,92.90
2018-10-17T21:26:30.219Z,95.00
2018-10-17T21:28:57.752Z,95.60
2018-10-17T21:31:26.231Z,96.00
2018-10-17T21:33:53.764Z,97.10
2018-10-17T21:36:22.231Z,97.20
2018-10-17T21:38:50.337Z,94.90
2018-10-17T21:41:17.858Z,93.60
2018-10-17T21:43:47.000Z,93.30
2018-10-17T21:46:15.209Z,92.10
2018-10-17T21:48:43.571Z,93.80
2018-10-17T21:51:12.060Z,95.60
2018-10-17T21:53:39.577Z,97.70
2018-10-17T21:56:07.144Z,98.40
2018-10-17T21:58:35.259Z,94.50
2018-10-17T22:01:02.800Z,92.20
2018-10-17T22:03:31.123Z,93.70
2018-10-17T22:05:59.280Z,97.10
2018-10-17T22:08:26.791Z,94.60
2018-10-17T22:10:55.126Z,95.80
2018-10-17T22:13:23.915Z,92.90
2018-10-17T22:15:51.978Z,93.10
2018-10-17T22:18:20.384Z,92.60
2018-10-17T22:20:47.880Z,95.40
2018-10-17T22:23:15.930Z,92.10
2018-10-17T22:25:44.094Z,94.80
2018-10-17T22:28:12.779Z,94.90
2018-10-17T22:30:41.071Z,97.10
2018-10-17T22:33:08.656Z,97.10
2018-10-17T22:35:37.017Z,95.00
2018-10-17T22:38:05.568Z,95.30
2018-10-17T22:40:33.041Z,95.50
2018-10-17T22:43:01.241Z,95.30
2018-10-17T22:45:28.734Z,95.10
2018-10-17T22:47:56.656Z,93.70
2018-10-17T22:50:24.144Z,94.10
2018-10-17T22:52:51.651Z,93.10
2018-10-17T22:55:19.337Z,94.60
2018-10-17T22:57:46.731Z,94.60
2018-10-17T23:00:14.396Z,94.60
2018-10-17T23:02:42.572Z,95.30
2018-10-17T23:05:10.755Z,96.60
2018-10-17T23:07:38.250Z,94.70
2018-10-17T23:10:05.899Z,96.10
2018-10-17T23:12:33.701Z,95.50
2018-10-17T23:15:04.862Z,95.10
2018-10-17T23:17:32.972Z,95.00
2018-10-17T23:20:00.514Z,95.40
2018-10-17T23:22:28.840Z,94.70
2018-10-17T23:24:57.096Z,94.70
2018-10-17T23:27:24.635Z,95.40
2018-10-17T23:29:52.110Z,94.80
2018-10-17T23:32:20.317Z,93.70
2018-10-17T23:34:48.244Z,94.90
2018-10-17T23:37:16.195Z,95.10
2018-10-17T23:39:44.233Z,96.80
2018-10-17T23:42:11.930Z,97.70
2018-10-17T23:44:40.289Z,97.20
2018-10-17T23:47:07.812Z,97.40
2018-10-17T23:49:35.772Z,95.30
2018-10-17T23:52:03.691Z,94.90
2018-10-17T23:54:31.195Z,95.30
2018-10-17T23:56:58.739Z,95.20
2018-10-17T23:59:27.408Z,95.10
